Time;durP1;ratioP1;P1;durP2;ratioP2;P2;SDS_P1;SDS_P2;PMS_P1;PMS_P2;Temp;Humidity;BMP_temperature;BMP_pressure;BME280_temperature;BME280_humidity;BME280_pressure;Samples;Min_cycle;Max_cycle;Signal;HPM_P1;HPM_P2
2023/10/06 00:02:58;;;;;;;29.23;7.13;;;;;;;12.29;84.11;101081.66;6179155;23;20705;-89
2023/10/06 00:05:25;;;;;;;40.83;8.15;;;;;;;12.23;84.12;101072.31;6179826;23;20072;-88
2023/10/06 00:07:52;;;;;;;24.88;6.85;;;;;;;12.18;84.23;101084.28;6155416;23;20783;-89
2023/10/06 00:10:21;;;;;;;26.38;7.13;;;;;;;12.14;84.38;101086.34;6155312;23;20028;-88
2023/10/06 00:12:54;;;;;;;23.48;6.93;;;;;;;12.15;84.36;101086.19;6179461;23;20031;-88
2023/10/06 00:15:26;;;;;;;28.08;6.95;;;;;;;12.12;84.54;101080.25;6179777;23;20025;-87
2023/10/06 00:18:00;;;;;;;26.23;6.78;;;;;;;12.12;84.38;101089.09;6180681;23;20102;-89
2023/10/06 00:20:39;;;;;;;27.50;8.60;;;;;;;12.09;83.96;101092.00;6178629;23;20044;-89
2023/10/06 00:23:14;;;;;;;24.33;7.13;;;;;;;12.06;83.80;101083.38;6205086;23;20024;-89
2023/10/06 00:25:43;;;;;;;15.30;5.72;;;;;;;12.05;83.24;101079.88;6181260;23;20044;-89
2023/10/06 00:28:20;;;;;;;17.40;6.10;;;;;;;12.07;83.52;101085.09;6178868;23;20035;-89
2023/10/06 00:30:47;;;;;;;17.88;6.57;;;;;;;12.10;83.70;101077.72;6132185;23;20091;-89
2023/10/06 00:33:15;;;;;;;15.60;6.90;;;;;;;12.13;83.32;101081.94;6155577;23;20040;-89
2023/10/06 00:35:44;;;;;;;21.17;7.57;;;;;;;12.10;83.54;101071.53;6154549;23;20376;-88
2023/10/06 00:38:17;;;;;;;26.30;8.30;;;;;;;12.08;83.60;101078.78;6204354;23;20024;-90
2023/10/06 00:40:54;;;;;;;16.88;6.75;;;;;;;12.06;83.20;101070.94;6131416;23;20380;-90
2023/10/06 00:43:43;;;;;;;15.40;6.90;;;;;;;12.02;83.74;101073.94;6154337;23;20075;-89
2023/10/06 00:46:11;;;;;;;25.10;7.80;;;;;;;12.01;83.81;101067.78;6178972;23;20025;-89
2023/10/06 00:48:40;;;;;;;18.35;7.13;;;;;;;12.03;83.67;101073.81;6129934;23;20352;-89
2023/10/06 00:51:19;;;;;;;21.40;8.45;;;;;;;12.00;84.34;101060.72;6179392;23;20418;-88
2023/10/06 00:53:47;;;;;;;15.38;7.18;;;;;;;12.04;84.34;101056.03;6179803;23;20192;-89
2023/10/06 00:56:17;;;;;;;12.45;6.68;;;;;;;12.05;83.90;101057.72;6203784;23;20024;-89
2023/10/06 00:58:44;;;;;;;19.98;6.95;;;;;;;12.07;83.93;101058.47;6180386;23;20036;-89
2023/10/06 01:01:17;;;;;;;20.83;6.40;;;;;;;11.98;84.41;101046.69;6180335;23;20029;-89
2023/10/06 01:03:48;;;;;;;23.25;6.95;;;;;;;12.00;84.43;101044.75;6179103;23;20024;-89
2023/10/06 01:06:17;;;;;;;22.60;7.32;;;;;;;12.00;84.77;101052.75;6155748;23;20031;-90
2023/10/06 01:08:52;;;;;;;23.63;6.95;;;;;;;12.00;84.15;101051.91;6156316;23;20758;-89
2023/10/06 01:11:20;;;;;;;17.27;6.95;;;;;;;11.95;84.22;101047.75;6156429;23;20020;-89
2023/10/06 01:13:54;;;;;;;24.50;7.15;;;;;;;11.98;83.19;101038.69;6154624;23;20044;-90
2023/10/06 01:16:35;;;;;;;14.65;7.22;;;;;;;11.91;83.04;101046.31;6205809;23;20048;-89
2023/10/06 01:19:25;;;;;;;30.40;8.05;;;;;;;11.95;83.17;101046.91;6154956;23;20100;-89
2023/10/06 01:21:54;;;;;;;14.82;6.82;;;;;;;11.89;83.10;101050.88;6158682;23;20021;-89
2023/10/06 01:24:27;;;;;;;24.40;6.68;;;;;;;11.89;83.34;101058.03;6179140;23;20090;-89
2023/10/06 01:27:00;;;;;;;17.13;6.38;;;;;;;11.83;82.76;101051.31;6204880;23;20016;-90
2023/10/06 01:29:30;;;;;;;20.42;7.35;;;;;;;11.88;82.58;101058.97;6154475;23;20025;-89
2023/10/06 01:31:58;;;;;;;29.50;7.70;;;;;;;11.82;81.93;101057.59;6154264;23;20024;-89
2023/10/06 01:34:27;;;;;;;21.27;6.45;;;;;;;11.77;81.23;101054.41;6178980;23;20028;-90
2023/10/06 01:36:54;;;;;;;20.58;6.20;;;;;;;11.72;81.03;101059.22;6153346;23;20023;-90
2023/10/06 01:39:26;;;;;;;18.92;7.30;;;;;;;11.71;81.10;101063.72;6129981;23;20028;-89
2023/10/06 01:41:53;;;;;;;17.60;6.40;;;;;;;11.69;80.97;101060.31;6179070;23;20025;-90
2023/10/06 01:44:20;;;;;;;16.65;5.88;;;;;;;11.70;80.79;101061.16;6179651;23;20017;-89
2023/10/06 01:46:53;;;;;;;13.60;6.25;;;;;;;11.70;80.31;101059.38;6153400;23;20445;-88
2023/10/06 01:49:24;;;;;;;13.18;5.70;;;;;;;11.66;79.55;101065.88;6131818;23;20027;-88
2023/10/06 01:51:51;;;;;;;11.38;5.03;;;;;;;11.65;79.75;101069.50;6130318;23;20035;-89
2023/10/06 01:54:35;;;;;;;13.07;6.03;;;;;;;11.62;79.31;101069.69;6136076;23;20017;-89
2023/10/06 01:57:06;;;;;;;11.13;4.68;;;;;;;11.55;78.88;101063.16;6179366;23;20095;-90
2023/10/06 01:59:33;;;;;;;18.58;5.80;;;;;;;11.61;78.81;101069.81;6155108;23;20028;-89
2023/10/06 02:02:01;;;;;;;12.63;5.78;;;;;;;11.59;78.42;101074.41;6153507;23;20095;-89
2023/10/06 02:04:38;;;;;;;11.70;5.03;;;;;;;11.58;78.30;101073.56;6179184;23;20016;-89
2023/10/06 02:07:09;;;;;;;10.90;5.75;;;;;;;11.61;78.23;101075.16;6179048;23;20024;-88
2023/10/06 02:09:37;;;;;;;14.77;5.75;;;;;;;11.59;78.46;101077.91;6154879;23;20030;-88
2023/10/06 02:12:04;;;;;;;16.95;5.72;;;;;;;11.57;78.68;101068.34;6203453;23;20443;-89
2023/10/06 02:14:31;;;;;;;10.48;5.43;;;;;;;11.57;78.67;101069.19;6178339;23;20448;-88
2023/10/06 02:17:05;;;;;;;13.65;5.22;;;;;;;11.59;78.79;101066.44;6179224;23;20032;-90
2023/10/06 02:19:32;;;;;;;18.55;6.32;;;;;;;11.60;78.93;101063.66;6179778;23;20024;-89
2023/10/06 02:22:01;;;;;;;18.50;5.60;;;;;;;11.57;79.04;101052.38;6203172;23;20619;-89
2023/10/06 02:24:28;;;;;;;15.15;6.40;;;;;;;11.60;79.01;101047.69;6129932;23;20021;-89
2023/10/06 02:27:00;;;;;;;15.88;5.63;;;;;;;11.62;79.48;101045.75;6154206;23;20016;-88
2023/10/06 02:29:28;;;;;;;;;;;;;;;11.48;79.66;101044.13;6132564;23;20027;-88
2023/10/06 02:32:01;;;;;;;13.10;6.28;;;;;;;11.60;79.69;101041.50;6180561;23;19970;-89
2023/10/06 02:34:29;;;;;;;15.75;5.72;;;;;;;11.63;79.21;101046.63;6182053;23;20027;-89
2023/10/06 02:36:57;;;;;;;18.88;6.22;;;;;;;11.64;79.31;101040.34;6180149;23;20040;-88
2023/10/06 02:39:28;;;;;;;13.25;6.15;;;;;;;11.65;79.34;101034.91;6155831;23;20392;-89
2023/10/06 02:41:58;;;;;;;14.00;5.88;;;;;;;11.60;79.58;101037.06;6205848;23;20075;-90
2023/10/06 02:44:25;;;;;;;20.08;6.30;;;;;;;11.59;80.05;101039.81;6180648;23;20020;-89
2023/10/06 02:46:52;;;;;;;14.68;7.07;;;;;;;11.56;79.73;101030.25;6181176;23;20024;-89
2023/10/06 02:49:31;;;;;;;21.00;6.47;;;;;;;11.55;79.91;101033.00;6181151;23;20040;-89
2023/10/06 02:52:00;;;;;;;17.95;6.13;;;;;;;11.59;80.19;101045.97;6158176;23;20440;-89
2023/10/06 02:54:30;;;;;;;19.02;7.22;;;;;;;11.57;80.17;101033.75;6205674;23;20021;-88
2023/10/06 02:56:57;;;;;;;17.77;6.70;;;;;;;11.55;80.20;101035.69;6156381;23;20017;-90
2023/10/06 02:59:25;;;;;;;18.95;6.00;;;;;;;11.54;80.34;101036.66;6181517;23;20090;-89
2023/10/06 03:01:56;;;;;;;27.42;7.80;;;;;;;11.51;80.57;101043.88;6180555;23;20013;-90
2023/10/06 03:04:27;;;;;;;28.08;6.88;;;;;;;11.46;80.20;101037.22;6181987;23;20035;-89
2023/10/06 03:06:58;;;;;;;13.85;6.28;;;;;;;11.42;79.79;101025.97;6182009;23;20028;-89
2023/10/06 03:09:29;;;;;;;17.27;6.40;;;;;;;11.38;79.55;101035.13;6131825;23;20042;-89
2023/10/06 03:11:59;;;;;;;14.18;6.45;;;;;;;11.37;79.12;101029.88;6156491;23;20259;-90
2023/10/06 03:14:37;;;;;;;13.52;6.55;;;;;;;11.29;78.68;101020.66;6157508;23;20124;-90
2023/10/06 03:17:08;;;;;;;12.95;5.95;;;;;;;11.31;78.47;101028.53;6159585;23;20366;-89
2023/10/06 03:19:40;;;;;;;13.48;6.22;;;;;;;11.30;78.39;101013.56;6205084;23;20027;-89
2023/10/06 03:22:10;;;;;;;13.00;6.13;;;;;;;11.30;78.42;101025.03;6156654;23;20032;-90
2023/10/06 03:24:52;;;;;;;24.00;8.05;;;;;;;11.25;78.25;101021.84;6181071;23;20111;-90
2023/10/06 03:27:22;;;;;;;13.80;6.97;;;;;;;11.21;79.01;101032.81;6183367;23;20403;-90
2023/10/06 03:29:54;;;;;;;24.80;7.32;;;;;;;11.19;78.74;101035.56;6180672;23;20020;-89
2023/10/06 03:32:32;;;;;;;;;;;;;;;10.93;79.59;101040.09;6205534;23;20059;-90
2023/10/06 03:35:08;;;;;;;14.88;7.18;;;;;;;11.07;79.51;101032.00;6181672;23;20013;-90
2023/10/06 03:37:39;;;;;;;13.10;6.65;;;;;;;11.11;79.39;101035.28;6156564;23;20096;-89
2023/10/06 03:40:22;;;;;;;15.30;7.65;;;;;;;11.13;78.99;101028.06;6180582;23;20020;-89
2023/10/06 03:42:50;;;;;;;13.23;5.70;;;;;;;11.13;78.92;101025.41;6151113;23;20027;-88
2023/10/06 03:45:26;;;;;;;16.63;7.15;;;;;;;11.15;79.59;101034.13;6179554;23;20044;-88
2023/10/06 03:48:08;;;;;;;16.30;6.20;;;;;;;11.15;79.53;101028.78;6154852;23;20020;-89
2023/10/06 03:50:43;;;;;;;16.45;6.78;;;;;;;11.17;79.40;101031.31;6180248;23;20021;-90
2023/10/06 03:53:12;;;;;;;16.77;7.00;;;;;;;11.13;79.43;101038.69;6155098;23;20020;-89
2023/10/06 03:55:45;;;;;;;22.67;6.47;;;;;;;11.08;79.75;101024.88;6204394;23;20079;-89
2023/10/06 03:58:15;;;;;;;15.05;6.18;;;;;;;11.11;79.53;101024.66;6180608;23;20079;-91
2023/10/06 04:00:48;;;;;;;13.38;5.97;;;;;;;11.13;79.55;101032.53;6179786;23;20483;-89
2023/10/06 04:03:17;;;;;;;12.25;6.32;;;;;;;11.11;79.58;101029.97;6154639;23;20021;-91
2023/10/06 04:05:45;;;;;;;9.25;5.13;;;;;;;11.14;79.37;101024.41;6131992;23;20095;-89
2023/10/06 04:08:15;;;;;;;13.60;6.03;;;;;;;11.13;78.94;101020.06;6155169;23;20032;-90
2023/10/06 04:10:44;;;;;;;9.35;5.88;;;;;;;11.10;79.15;101025.63;6204486;23;20032;-89
2023/10/06 04:13:12;;;;;;;12.73;5.50;;;;;;;11.03;78.99;101019.03;6180437;23;20052;-90
2023/10/06 04:15:39;;;;;;;13.77;5.68;;;;;;;11.07;79.03;101026.69;6155699;23;20021;-90
2023/10/06 04:18:10;;;;;;;12.63;5.95;;;;;;;11.06;79.36;101019.66;6179872;23;20445;-90
2023/10/06 04:20:39;;;;;;;18.52;7.07;;;;;;;11.03;79.51;101022.53;6155948;23;20028;-89
2023/10/06 04:23:11;;;;;;;13.35;6.38;;;;;;;11.02;79.63;101020.00;6180978;23;20023;-90
2023/10/06 04:25:39;;;;;;;13.52;6.15;;;;;;;11.06;79.62;101024.13;6154854;23;20016;-88
2023/10/06 04:28:11;;;;;;;19.02;6.30;;;;;;;11.01;79.13;101021.78;6180735;23;20028;-89
2023/10/06 04:30:38;;;;;;;18.55;6.40;;;;;;;11.04;79.26;101028.69;6156341;23;20020;-88
2023/10/06 04:33:05;;;;;;;14.80;6.82;;;;;;;11.07;79.11;101032.00;6179298;23;20013;-90
2023/10/06 04:35:32;;;;;;;11.55;6.43;;;;;;;11.03;79.56;101021.69;6155807;23;20038;-89
2023/10/06 04:38:00;;;;;;;17.23;7.10;;;;;;;11.01;79.18;101019.13;6180416;23;20056;-89
2023/10/06 04:40:28;;;;;;;15.85;6.80;;;;;;;11.02;79.54;101027.97;6179411;23;20017;-90
2023/10/06 04:42:56;;;;;;;15.57;6.78;;;;;;;10.99;79.79;101029.06;6179408;23;20471;-90
2023/10/06 04:45:24;;;;;;;20.02;6.85;;;;;;;11.00;79.67;101022.75;6155566;23;20021;-89
2023/10/06 04:47:55;;;;;;;13.02;6.10;;;;;;;11.04;79.28;101034.88;6180086;23;20071;-90
2023/10/06 04:50:22;;;;;;;15.93;7.40;;;;;;;10.98;79.88;101030.00;6155580;23;20020;-90
2023/10/06 04:52:49;;;;;;;15.55;6.75;;;;;;;11.01;79.91;101035.09;6204261;23;20495;-89
2023/10/06 04:55:16;;;;;;;14.65;7.07;;;;;;;10.98;79.83;101029.16;6205359;23;20020;-90
2023/10/06 04:57:43;;;;;;;17.17;7.38;;;;;;;10.95;79.96;101030.22;6179129;23;20091;-87
2023/10/06 05:00:14;;;;;;;15.70;7.72;;;;;;;10.95;79.78;101024.91;6155227;23;20079;-87
2023/10/06 05:02:44;;;;;;;15.00;7.50;;;;;;;10.98;79.76;101026.50;6180693;23;20286;-88
2023/10/06 05:05:12;;;;;;;13.75;6.55;;;;;;;10.95;79.80;101018.75;6157226;23;20325;-88
2023/10/06 05:07:39;;;;;;;16.40;8.45;;;;;;;10.96;79.61;101023.09;6205965;23;20028;-88
2023/10/06 05:10:13;;;;;;;16.80;7.45;;;;;;;10.98;79.60;101030.00;6181378;23;20453;-88
2023/10/06 05:12:42;;;;;;;18.65;7.18;;;;;;;10.98;79.46;101016.69;6180680;23;20024;-86
2023/10/06 05:15:14;;;;;;;17.63;7.78;;;;;;;10.99;79.46;101031.72;6157474;23;20086;-88
2023/10/06 05:17:41;;;;;;;20.83;8.10;;;;;;;10.95;79.80;101029.38;6180465;23;20032;-87
2023/10/06 05:20:19;;;;;;;15.93;7.32;;;;;;;10.98;79.55;101030.00;6155985;23;20024;-87
2023/10/06 05:22:48;;;;;;;16.42;7.47;;;;;;;10.98;79.67;101037.97;6133714;23;20380;-87
2023/10/06 05:25:15;;;;;;;19.52;7.78;;;;;;;10.94;79.58;101028.53;6205236;23;20070;-88
2023/10/06 05:27:44;;;;;;;19.45;8.23;;;;;;;10.94;79.64;101027.66;6181061;23;20398;-88
2023/10/06 05:30:13;;;;;;;19.48;7.65;;;;;;;10.92;79.94;101027.78;6180867;23;20083;-88
2023/10/06 05:32:43;;;;;;;20.35;8.10;;;;;;;10.93;79.93;101024.16;6156007;23;20025;-86
2023/10/06 05:35:13;;;;;;;19.20;7.93;;;;;;;10.90;79.93;101021.72;6155993;23;20091;-89
2023/10/06 05:37:43;;;;;;;19.67;8.32;;;;;;;10.92;79.58;101025.13;6131852;23;20386;-88
2023/10/06 05:40:12;;;;;;;16.58;6.95;;;;;;;10.93;79.62;101021.50;6205229;23;20089;-87
2023/10/06 05:42:42;;;;;;;17.00;8.05;;;;;;;10.94;79.47;101025.00;6205223;23;20382;-87
2023/10/06 05:45:15;;;;;;;13.95;6.78;;;;;;;10.93;79.42;101021.50;6205157;23;20330;-87
2023/10/06 05:47:44;;;;;;;17.52;8.13;;;;;;;10.92;79.14;101025.13;6179873;23;20032;-90
2023/10/06 05:50:25;;;;;;;17.70;7.40;;;;;;;10.90;79.21;101039.47;6179832;23;20021;-88
2023/10/06 05:53:04;;;;;;;18.50;7.97;;;;;;;10.89;79.51;101030.66;6178257;23;20492;-87
2023/10/06 05:55:33;;;;;;;17.98;8.00;;;;;;;10.95;79.70;101043.50;6156578;23;20021;-88
2023/10/06 05:58:01;;;;;;;17.13;9.07;;;;;;;10.97;80.08;101041.59;6179736;23;20329;-88
2023/10/06 06:00:32;;;;;;;15.05;7.43;;;;;;;10.98;79.92;101045.94;6156029;23;20376;-88
2023/10/06 06:03:13;;;;;;;16.75;7.55;;;;;;;10.93;79.54;101042.75;6204834;23;20020;-88
2023/10/06 06:05:40;;;;;;;24.17;8.48;;;;;;;10.87;79.41;101045.84;6158030;23;20023;-87
2023/10/06 06:08:10;;;;;;;20.45;8.93;;;;;;;10.83;79.69;101050.53;6155057;23;20321;-88
2023/10/06 06:10:38;;;;;;;18.02;8.45;;;;;;;10.82;79.73;101046.19;6155951;23;20023;-88
2023/10/06 06:13:05;;;;;;;23.30;8.45;;;;;;;10.78;80.00;101049.16;6179068;23;20433;-89
2023/10/06 06:15:32;;;;;;;18.67;8.32;;;;;;;10.74;80.22;101048.53;6156317;23;20024;-87
2023/10/06 06:18:00;;;;;;;19.75;8.55;;;;;;;10.77;80.42;101058.94;6154736;23;20087;-87
2023/10/06 06:20:28;;;;;;;20.38;8.88;;;;;;;10.72;80.42;101061.06;6155775;23;20024;-88
2023/10/06 06:22:58;;;;;;;20.92;9.75;;;;;;;10.71;80.47;101055.84;6179501;23;20016;-87
2023/10/06 06:25:28;;;;;;;19.55;8.52;;;;;;;10.76;80.31;101057.25;6131573;23;20025;-88
2023/10/06 06:27:59;;;;;;;16.60;8.45;;;;;;;10.75;80.40;101066.16;6155422;23;20020;-88
2023/10/06 06:30:26;;;;;;;21.85;9.07;;;;;;;10.76;80.45;101067.88;6180844;23;20027;-88
2023/10/06 06:32:54;;;;;;;22.58;9.73;;;;;;;10.74;80.21;101053.84;6130480;23;20020;-88
2023/10/06 06:35:23;;;;;;;21.92;8.63;;;;;;;10.80;80.35;101068.50;6155384;23;20023;-84
2023/10/06 06:37:52;;;;;;;19.92;9.05;;;;;;;10.77;80.33;101076.69;6154172;23;20444;-88
2023/10/06 06:40:20;;;;;;;19.90;9.35;;;;;;;10.77;80.27;101074.03;6155075;23;20028;-87
2023/10/06 06:42:48;;;;;;;17.23;8.13;;;;;;;10.80;79.99;101079.13;6155560;23;20012;-88
2023/10/06 06:45:15;;;;;;;16.52;8.18;;;;;;;10.81;79.90;101079.03;6204693;23;20488;-87
2023/10/06 06:47:42;;;;;;;18.38;8.23;;;;;;;10.88;80.07;101074.13;6154488;23;20074;-87
2023/10/06 06:50:12;;;;;;;15.23;8.15;;;;;;;10.89;79.98;101073.19;6204851;23;20019;-87
2023/10/06 06:52:40;;;;;;;17.98;8.35;;;;;;;10.92;80.19;101075.63;6155092;23;20028;-87
2023/10/06 06:55:12;;;;;;;20.95;9.00;;;;;;;10.93;80.20;101076.47;6179844;23;20047;-88
2023/10/06 06:57:43;;;;;;;17.70;8.52;;;;;;;10.92;80.18;101075.63;6156422;23;20021;-87
2023/10/06 07:00:17;;;;;;;15.57;8.20;;;;;;;10.88;80.21;101071.47;6156015;23;20024;-87
2023/10/06 07:02:48;;;;;;;18.92;9.57;;;;;;;10.88;80.49;101074.13;6179904;23;20023;-86
2023/10/06 07:05:17;;;;;;;28.73;11.00;;;;;;;10.87;80.36;101077.75;6179844;23;20040;-87
2023/10/06 07:07:44;;;;;;;40.65;10.73;;;;;;;10.79;80.58;101072.97;6179293;23;20030;-88
2023/10/06 07:10:15;;;;;;;22.40;10.15;;;;;;;10.78;80.69;101070.41;6180498;23;20099;-87
2023/10/06 07:12:42;;;;;;;28.65;11.13;;;;;;;10.78;81.08;101065.94;6179145;23;20019;-87
2023/10/06 07:15:14;;;;;;;21.35;9.85;;;;;;;10.84;81.24;101078.81;6179312;23;20437;-88
2023/10/06 07:17:45;;;;;;;25.63;11.55;;;;;;;10.85;81.39;101084.97;6181062;23;20429;-88
2023/10/06 07:20:17;;;;;;;24.13;11.80;;;;;;;10.90;80.98;101080.19;6156227;23;20467;-87
2023/10/06 07:22:47;;;;;;;25.75;10.50;;;;;;;10.86;81.02;101087.53;6156137;23;20024;-87
2023/10/06 07:25:17;;;;;;;24.48;10.88;;;;;;;10.85;81.20;101093.78;6156389;23;20457;-87
2023/10/06 07:27:46;;;;;;;24.70;11.55;;;;;;;10.91;81.48;101094.31;6180675;23;20024;-88
2023/10/06 07:30:18;;;;;;;25.67;11.55;;;;;;;10.86;81.53;101084.00;6205287;23;20020;-87
2023/10/06 07:32:46;;;;;;;23.48;11.57;;;;;;;10.92;81.29;101077.44;6181108;23;20023;-87
2023/10/06 07:35:17;;;;;;;28.63;11.82;;;;;;;10.88;81.16;101078.59;6179705;23;20036;-87
2023/10/06 07:37:45;;;;;;;24.10;11.85;;;;;;;10.91;81.15;101073.91;6205364;23;20017;-88
2023/10/06 07:40:14;;;;;;;27.67;12.00;;;;;;;10.91;81.50;101076.56;6155685;23;20017;-88
2023/10/06 07:42:51;;;;;;;22.38;12.30;;;;;;;10.84;81.46;101076.16;6155830;23;20356;-88
2023/10/06 07:45:20;;;;;;;23.45;12.02;;;;;;;10.93;81.58;101068.50;6156289;23;20016;-86
2023/10/06 07:47:50;;;;;;;22.73;11.23;;;;;;;10.93;81.58;101068.50;6180697;23;20039;-87
2023/10/06 07:50:17;;;;;;;25.73;11.15;;;;;;;10.95;81.54;101064.75;6130574;23;20032;-87
2023/10/06 07:52:49;;;;;;;26.30;12.02;;;;;;;11.04;81.13;101056.16;6155204;23;20036;-87
2023/10/06 07:55:21;;;;;;;23.80;11.73;;;;;;;11.07;81.26;101061.25;6180867;23;20024;-87
2023/10/06 07:57:48;;;;;;;20.77;10.80;;;;;;;11.12;81.40;101060.91;6204936;23;20027;-87
2023/10/06 08:00:27;;;;;;;24.83;11.43;;;;;;;11.18;81.53;101060.47;6179951;23;20029;-88
2023/10/06 08:02:59;;;;;;;20.63;10.63;;;;;;;11.13;81.45;101059.09;6157261;23;20706;-87
2023/10/06 08:05:27;;;;;;;22.08;11.82;;;;;;;11.12;81.64;101060.03;6230460;23;20993;-87
2023/10/06 08:07:58;;;;;;;28.42;12.30;;;;;;;11.11;81.58;101056.53;6228512;23;20025;-87
2023/10/06 08:10:25;;;;;;;22.02;10.45;;;;;;;11.08;81.75;101054.97;6180191;23;20016;-87
2023/10/06 08:12:56;;;;;;;20.17;11.27;;;;;;;11.17;81.61;101047.28;6154933;23;20083;-88
2023/10/06 08:15:27;;;;;;;26.48;12.13;;;;;;;11.22;81.98;101043.34;6179650;23;20024;-88
2023/10/06 08:17:55;;;;;;;21.65;10.85;;;;;;;11.28;82.18;101048.22;6205350;23;20020;-87
2023/10/06 08:20:24;;;;;;;27.27;11.73;;;;;;;11.34;82.68;101051.41;6155468;23;20468;-86
2023/10/06 08:22:52;;;;;;;27.30;13.75;;;;;;;11.37;82.48;101052.03;6155336;23;20025;-86
2023/10/06 08:25:19;;;;;;;25.25;13.30;;;;;;;11.45;82.50;101055.00;6180120;23;20028;-87
2023/10/06 08:27:48;;;;;;;28.40;13.55;;;;;;;11.48;82.85;101056.56;6203799;23;20102;-86
2023/10/06 08:30:19;;;;;;;21.73;12.10;;;;;;;11.52;83.06;101047.38;6178979;23;20020;-87
2023/10/06 08:32:47;;;;;;;21.48;11.43;;;;;;;11.56;82.73;101053.34;6155272;23;20437;-87
2023/10/06 08:35:14;;;;;;;24.20;11.18;;;;;;;11.60;82.82;101053.03;6203382;23;20024;-87
2023/10/06 08:37:46;;;;;;;20.17;9.93;;;;;;;11.66;82.93;101065.88;6130059;23;20107;-86
2023/10/06 08:40:33;;;;;;;17.30;9.02;;;;;;;11.69;82.79;101055.00;6179398;23;20041;-87
2023/10/06 08:43:00;;;;;;;15.25;8.95;;;;;;;11.69;82.35;101062.97;6204640;23;20013;-87
2023/10/06 08:45:28;;;;;;;15.68;9.13;;;;;;;11.72;82.58;101056.56;6178792;23;20383;-86
2023/10/06 08:47:59;;;;;;;15.95;8.65;;;;;;;11.73;82.38;101056.47;6154319;23;20025;-87
2023/10/06 08:50:31;;;;;;;14.95;8.68;;;;;;;11.78;82.56;101056.13;6203898;23;20090;-87
2023/10/06 08:53:00;;;;;;;17.60;8.52;;;;;;;11.79;82.65;101041.00;6155220;23;20025;-86
2023/10/06 08:55:28;;;;;;;14.77;8.80;;;;;;;11.82;82.66;101044.28;6204359;23;20075;-87
2023/10/06 08:57:58;;;;;;;16.13;8.93;;;;;;;11.86;82.74;101051.13;6203853;23;20043;-87
2023/10/06 09:00:31;;;;;;;15.45;8.32;;;;;;;11.89;82.75;101047.38;6156642;23;20326;-86
2023/10/06 09:03:07;;;;;;;15.93;8.18;;;;;;;11.93;82.95;101036.41;6179968;23;20020;-87
2023/10/06 09:05:38;;;;;;;12.30;7.78;;;;;;;11.98;82.90;101038.69;6156468;23;20021;-87
2023/10/06 09:08:08;;;;;;;16.95;8.68;;;;;;;12.04;83.00;101032.91;6129474;23;20113;-86
2023/10/06 09:10:44;;;;;;;11.20;7.18;;;;;;;12.05;83.28;101029.28;6204909;23;20051;-86
2023/10/06 09:13:11;;;;;;;14.50;7.72;;;;;;;12.13;83.33;101026.03;6179238;23;20048;-86
2023/10/06 09:15:43;;;;;;;20.20;8.27;;;;;;;12.14;83.56;101025.94;6155148;23;20028;-87
2023/10/06 09:18:18;;;;;;;14.15;7.30;;;;;;;12.18;83.95;101017.69;6203422;23;20020;-87
2023/10/06 09:20:47;;;;;;;16.95;8.48;;;;;;;12.23;84.16;101020.88;6179068;23;20397;-86
2023/10/06 09:23:34;;;;;;;15.40;7.65;;;;;;;12.24;85.33;101009.25;6178814;23;20082;-87
2023/10/06 09:26:03;;;;;;;12.13;6.80;;;;;;;12.32;84.69;101015.69;6178757;23;20048;-87
2023/10/06 09:28:31;;;;;;;13.18;6.93;;;;;;;12.35;84.66;101011.94;6179491;23;20457;-86
2023/10/06 09:31:08;;;;;;;14.07;7.05;;;;;;;12.41;85.07;101015.94;6154173;23;20025;-86
2023/10/06 09:33:37;;;;;;;15.13;8.70;;;;;;;12.44;85.50;101011.25;6178166;23;20040;-87
2023/10/06 09:36:07;;;;;;;13.85;7.00;;;;;;;12.49;85.69;101002.88;6203444;23;20028;-87
2023/10/06 09:38:39;;;;;;;16.15;7.13;;;;;;;12.53;86.17;101001.66;6153791;23;20035;-87
2023/10/06 09:41:07;;;;;;;16.45;7.38;;;;;;;12.57;86.10;101005.81;6203697;23;20094;-86
2023/10/06 09:43:38;;;;;;;15.00;7.90;;;;;;;12.63;85.99;101010.63;6179302;23;20024;-87
2023/10/06 09:46:07;;;;;;;17.00;7.65;;;;;;;12.68;85.88;101002.28;6202746;23;20036;-86
2023/10/06 09:48:36;;;;;;;13.90;8.35;;;;;;;12.73;86.06;101000.94;6154563;23;20349;-86
2023/10/06 09:51:08;;;;;;;15.77;7.63;;;;;;;12.74;85.62;100993.78;6179057;23;20453;-86
2023/10/06 09:53:39;;;;;;;12.93;6.03;;;;;;;12.76;85.58;100990.03;6154943;23;20021;-86
2023/10/06 09:56:09;;;;;;;14.75;6.85;;;;;;;12.81;85.50;100995.84;6179303;23;20091;-86
2023/10/06 09:58:53;;;;;;;14.00;7.45;;;;;;;12.80;85.78;100988.84;6155186;23;20028;-86
2023/10/06 10:01:31;;;;;;;14.75;7.13;;;;;;;12.88;85.35;100990.91;6179890;23;20026;-86
2023/10/06 10:03:58;;;;;;;15.23;7.20;;;;;;;12.92;85.03;100980.81;6180900;23;20831;-87
2023/10/06 10:06:25;;;;;;;21.17;9.40;;;;;;;12.98;84.66;100991.84;6153941;23;20030;-86
2023/10/06 10:08:52;;;;;;;18.35;8.43;;;;;;;13.03;84.89;100987.00;6153989;23;20089;-86
2023/10/06 10:11:29;;;;;;;19.55;8.88;;;;;;;13.08;84.54;100983.09;6154689;23;20017;-86
2023/10/06 10:14:33;;;;;;;16.48;8.75;;;;;;;13.08;84.80;100983.09;6154678;23;20400;-86
2023/10/06 10:17:13;;;;;;;17.73;8.65;;;;;;;13.15;84.27;100986.97;6202436;23;20024;-87
2023/10/06 10:19:43;;;;;;;16.65;7.63;;;;;;;13.20;84.64;100982.09;6178749;23;20024;-85
2023/10/06 10:22:16;;;;;;;16.30;7.95;;;;;;;13.22;84.87;100973.00;6129460;23;20090;-86
2023/10/06 10:24:44;;;;;;;18.38;7.90;;;;;;;13.30;85.01;100974.25;6179733;23;20378;-87
2023/10/06 10:27:20;;;;;;;16.10;7.90;;;;;;;13.35;84.88;100980.06;6204018;23;20040;-86
2023/10/06 10:29:47;;;;;;;;;;;;;;;13.25;85.20;100974.59;6154117;23;20677;-87
2023/10/06 10:32:17;;;;;;;18.13;7.90;;;;;;;13.39;84.52;100973.50;6178609;23;20002;-87
2023/10/06 10:35:10;;;;;;;18.63;7.82;;;;;;;13.38;84.38;100966.44;6203467;23;20020;-87
2023/10/06 10:38:06;;;;;;;14.18;6.70;;;;;;;13.43;84.32;100974.94;6130357;23;20337;-86
2023/10/06 10:40:47;;;;;;;20.00;7.90;;;;;;;13.48;84.11;100971.88;6129992;23;20028;-85
2023/10/06 10:43:15;;;;;;;13.68;6.95;;;;;;;13.54;84.00;100960.72;6153045;23;20079;-86
2023/10/06 10:45:45;;;;;;;14.45;7.57;;;;;;;13.55;84.05;100954.41;6204124;23;20021;-85
2023/10/06 10:48:13;;;;;;;17.35;6.50;;;;;;;13.56;83.86;100951.63;6155023;23;20032;-86
2023/10/06 10:50:52;;;;;;;17.83;7.90;;;;;;;13.52;83.77;100952.00;6179381;23;20380;-86
2023/10/06 10:53:20;;;;;;;16.92;7.07;;;;;;;13.56;84.00;100950.75;6179954;23;20035;-86
2023/10/06 10:55:48;;;;;;;17.38;6.95;;;;;;;13.55;83.94;100941.91;6155891;23;20074;-87
2023/10/06 10:58:49;;;;;;;19.40;7.10;;;;;;;13.55;83.77;100928.56;6130803;23;20464;-86
2023/10/06 11:01:23;;;;;;;17.48;6.65;;;;;;;13.62;83.85;100929.75;6207105;23;20019;-86
2023/10/06 11:04:35;;;;;;;16.30;7.30;;;;;;;13.61;84.12;100917.38;6180476;23;20019;-86
2023/10/06 11:07:10;;;;;;;14.32;6.30;;;;;;;13.66;83.80;100924.97;6153122;23;20020;-87
2023/10/06 11:09:40;;;;;;;13.65;6.75;;;;;;;13.73;83.65;100917.31;6180105;23;20017;-85
2023/10/06 11:12:16;;;;;;;16.70;7.13;;;;;;;13.74;83.70;100919.00;6179725;23;20083;-85
2023/10/06 11:14:49;;;;;;;14.55;7.63;;;;;;;13.80;83.56;100918.50;6204519;23;20021;-86
2023/10/06 11:17:26;;;;;;;17.95;6.95;;;;;;;13.81;83.90;100922.84;6180881;23;20020;-86
2023/10/06 11:20:01;;;;;;;16.95;7.28;;;;;;;13.84;83.75;100907.44;6155655;23;20028;-86
2023/10/06 11:22:32;;;;;;;16.80;6.97;;;;;;;13.89;83.34;100905.22;6205227;23;20032;-86
2023/10/06 11:25:03;;;;;;;15.85;6.57;;;;;;;13.92;83.21;100897.88;6180860;23;20024;-87
2023/10/06 11:27:30;;;;;;;12.63;6.30;;;;;;;13.97;83.50;100898.34;6180300;23;20357;-86
2023/10/06 11:29:59;;;;;;;20.52;7.13;;;;;;;14.01;83.38;100905.13;6180236;23;20099;-87
2023/10/06 11:32:28;;;;;;;15.18;7.15;;;;;;;14.03;83.57;100897.84;6156256;23;20036;-87
2023/10/06 11:34:55;;;;;;;17.38;6.63;;;;;;;14.10;83.60;100894.50;6206357;23;20310;-86
2023/10/06 11:37:25;;;;;;;15.50;6.57;;;;;;;14.10;83.33;100897.19;6206144;23;20099;-86